createdAt,value
2017-08-17T00:01:45.612Z,10.27
2017-08-17T00:03:47.314Z,13.20
2017-08-17T00:05:48.260Z,14.00
2017-08-17T00:07:49.209Z,12.87
2017-08-17T00:09:50.168Z,9.97
2017-08-17T00:11:51.859Z,20.60
2017-08-17T00:13:52.800Z,16.83
2017-08-17T00:15:53.752Z,15.13
2017-08-17T00:18:01.796Z,10.73
2017-08-17T00:20:03.486Z,9.83
2017-08-17T00:22:04.428Z,11.77
2017-08-17T00:24:05.432Z,11.10
2017-08-17T00:26:06.400Z,12.40
2017-08-17T00:28:07.353Z,21.07
2017-08-17T00:30:08.296Z,7.60
2017-08-17T00:32:09.235Z,13.93
2017-08-17T00:34:10.172Z,12.33
2017-08-17T00:36:11.136Z,8.70
2017-08-17T00:38:12.834Z,10.43
2017-08-17T00:40:13.773Z,11.97
2017-08-17T00:42:14.724Z,15.90
2017-08-17T00:44:15.652Z,11.17
2017-08-17T00:46:16.601Z,14.00
2017-08-17T00:48:17.541Z,19.10
2017-08-17T00:50:18.492Z,18.87
2017-08-17T00:52:19.442Z,14.23
2017-08-17T00:54:21.141Z,14.50
2017-08-17T00:56:22.097Z,14.07
2017-08-17T00:58:23.056Z,19.10
2017-08-17T01:00:24.764Z,13.20
2017-08-17T01:02:25.699Z,14.30
2017-08-17T01:04:26.664Z,14.50
2017-08-17T01:06:27.626Z,13.87
2017-08-17T01:08:29.325Z,12.53
2017-08-17T01:10:30.276Z,19.40
2017-08-17T01:12:31.213Z,14.00
2017-08-17T01:14:32.149Z,21.50
2017-08-17T01:16:33.084Z,13.93
2017-08-17T01:18:34.032Z,13.67
2017-08-17T01:20:35.054Z,12.53
2017-08-17T01:22:36.009Z,14.57
2017-08-17T01:24:36.940Z,14.43
2017-08-17T01:26:37.905Z,14.17
2017-08-17T01:28:39.601Z,16.70
2017-08-17T01:30:40.605Z,11.70
2017-08-17T01:32:41.570Z,26.70
2017-08-17T01:34:42.530Z,11.90
2017-08-17T01:36:43.488Z,23.37
2017-08-17T01:38:45.195Z,14.30
2017-08-17T01:40:46.156Z,16.83
2017-08-17T01:42:47.129Z,17.83
2017-08-17T01:44:48.076Z,11.50
2017-08-17T01:46:49.040Z,19.33
2017-08-17T01:48:50.034Z,16.77
2017-08-17T01:50:51.726Z,12.33
2017-08-17T01:52:52.673Z,22.57
2017-08-17T01:54:53.828Z,19.10
2017-08-17T01:56:54.760Z,13.37
2017-08-17T01:58:55.708Z,16.80
2017-08-17T02:00:56.698Z,17.37
2017-08-17T02:02:57.664Z,18.43
2017-08-17T02:04:58.608Z,24.00
2017-08-17T02:07:00.344Z,13.77
2017-08-17T02:09:01.283Z,16.87
2017-08-17T02:11:02.237Z,23.47
2017-08-17T02:13:03.208Z,24.37
2017-08-17T02:15:04.156Z,14.60
2017-08-17T02:17:05.105Z,25.63
2017-08-17T02:19:08.864Z,22.70
2017-08-17T02:21:09.792Z,18.87
2017-08-17T02:23:11.655Z,18.30
2017-08-17T02:25:13.340Z,20.93
2017-08-17T02:27:14.283Z,24.60
2017-08-17T02:29:15.238Z,19.33
2017-08-17T02:31:16.180Z,17.70
2017-08-17T02:33:17.116Z,18.83
2017-08-17T02:35:18.057Z,19.77
2017-08-17T02:37:18.997Z,21.63
2017-08-17T02:39:20.004Z,20.50
2017-08-17T02:41:20.941Z,18.80
2017-08-17T02:43:21.892Z,18.33
2017-08-17T02:45:22.840Z,20.73
2017-08-17T02:47:23.780Z,21.23
2017-08-17T02:49:24.712Z,16.70
2017-08-17T02:51:25.645Z,17.37
2017-08-17T02:53:26.580Z,15.53
2017-08-17T02:55:27.514Z,25.60
2017-08-17T02:57:28.459Z,18.40
2017-08-17T02:59:29.388Z,20.70
2017-08-17T03:01:30.332Z,27.43
2017-08-17T03:03:31.268Z,23.13
2017-08-17T03:05:32.208Z,16.50
2017-08-17T03:07:33.136Z,23.87
2017-08-17T03:09:34.072Z,27.40
2017-08-17T03:11:35.008Z,23.93
2017-08-17T03:13:35.941Z,25.43
2017-08-17T03:15:36.885Z,24.60
2017-08-17T03:17:37.820Z,21.23
2017-08-17T03:19:39.500Z,28.33
2017-08-17T03:21:40.444Z,34.70
2017-08-17T03:23:41.397Z,31.53
2017-08-17T03:25:42.370Z,24.87
2017-08-17T03:27:44.073Z,25.30
2017-08-17T03:29:45.004Z,24.43
2017-08-17T03:31:45.956Z,21.83
2017-08-17T03:33:46.918Z,23.67
2017-08-17T03:35:47.888Z,23.80
2017-08-17T03:37:49.557Z,27.70
2017-08-17T03:39:50.506Z,24.57
2017-08-17T03:41:51.452Z,23.80
2017-08-17T03:43:52.396Z,24.47
2017-08-17T03:45:53.340Z,24.13
2017-08-17T03:47:54.273Z,25.43
2017-08-17T03:49:55.228Z,30.40
2017-08-17T03:51:56.168Z,26.07
2017-08-17T03:53:57.100Z,35.57
2017-08-17T03:55:58.036Z,23.30
2017-08-17T03:57:58.976Z,45.30
2017-08-17T03:59:59.916Z,28.93
2017-08-17T04:02:00.861Z,32.07
2017-08-17T04:04:01.794Z,25.70
2017-08-17T04:06:02.740Z,23.80
2017-08-17T04:08:03.681Z,25.67
2017-08-17T04:10:04.609Z,31.80
2017-08-17T04:12:05.552Z,34.30
2017-08-17T04:14:06.485Z,27.53
2017-08-17T04:16:07.433Z,25.47
2017-08-17T04:18:08.361Z,25.07
2017-08-17T04:20:09.288Z,26.87
2017-08-17T04:22:10.229Z,26.03
2017-08-17T04:24:11.160Z,35.60
2017-08-17T04:26:12.107Z,29.50
2017-08-17T04:28:13.045Z,30.53
2017-08-17T04:30:13.972Z,30.53
2017-08-17T04:32:14.912Z,33.90
2017-08-17T04:34:15.856Z,28.77
2017-08-17T04:36:16.801Z,36.87
2017-08-17T04:38:17.736Z,31.40
2017-08-17T04:40:18.672Z,37.90
2017-08-17T04:42:19.607Z,33.60
2017-08-17T04:44:20.557Z,30.17
2017-08-17T04:46:21.492Z,32.20
2017-08-17T04:48:22.440Z,32.17
2017-08-17T04:50:23.381Z,37.20
2017-08-17T04:52:24.326Z,36.57
2017-08-17T04:54:26.031Z,28.87
2017-08-17T04:56:45.684Z,35.50
2017-08-17T04:58:46.629Z,36.17
2017-08-17T05:00:47.557Z,37.70
2017-08-17T05:02:48.492Z,33.90
2017-08-17T05:04:49.433Z,32.63
2017-08-17T05:06:50.369Z,36.20
2017-08-17T05:08:51.304Z,31.93
2017-08-17T05:10:52.229Z,36.67
2017-08-17T05:12:53.188Z,32.67
2017-08-17T05:14:54.132Z,28.70
2017-08-17T05:16:55.076Z,35.47
2017-08-17T05:18:56.015Z,40.53
2017-08-17T05:20:56.968Z,35.30
2017-08-17T05:22:57.918Z,31.57
2017-08-17T05:24:59.597Z,39.50
2017-08-17T05:27:00.528Z,31.87
2017-08-17T05:29:01.473Z,35.57
2017-08-17T05:31:02.673Z,34.60
2017-08-17T05:33:04.369Z,31.50
2017-08-17T05:35:05.312Z,35.43
2017-08-17T05:37:06.240Z,34.87
2017-08-17T05:39:07.189Z,34.83
2017-08-17T05:41:08.140Z,31.90
2017-08-17T05:43:09.092Z,33.60
2017-08-17T05:45:10.036Z,31.70
2017-08-17T05:47:11.260Z,29.87
2017-08-17T05:49:12.361Z,32.53
2017-08-17T05:51:13.312Z,33.17
2017-08-17T05:53:14.243Z,28.03
2017-08-17T05:55:15.188Z,38.30
2017-08-17T05:57:16.134Z,30.17
2017-08-17T05:59:17.069Z,27.40
2017-08-17T06:01:18.113Z,31.10
2017-08-17T06:03:19.056Z,30.40
2017-08-17T06:05:20.012Z,30.40
2017-08-17T06:07:21.680Z,31.00
2017-08-17T06:09:22.617Z,30.10
2017-08-17T06:11:23.572Z,26.53
2017-08-17T06:13:24.496Z,29.90
2017-08-17T06:15:25.445Z,32.40
2017-08-17T06:17:26.384Z,35.93
2017-08-17T06:19:27.316Z,30.40
2017-08-17T06:21:28.253Z,29.70
2017-08-17T06:23:29.188Z,27.73
2017-08-17T06:25:30.129Z,30.20
2017-08-17T06:27:31.072Z,38.30
2017-08-17T06:29:32.028Z,32.97
2017-08-17T06:31:32.959Z,29.63
2017-08-17T06:33:33.960Z,36.63
2017-08-17T06:35:34.881Z,30.67
2017-08-17T06:37:35.820Z,37.50
2017-08-17T06:39:36.761Z,29.43
2017-08-17T06:41:37.696Z,28.57
2017-08-17T06:43:38.687Z,31.33
2017-08-17T06:45:39.628Z,30.60
2017-08-17T06:47:40.595Z,35.87
2017-08-17T06:49:41.538Z,49.93
2017-08-17T06:51:42.528Z,26.43
2017-08-17T06:53:43.471Z,31.60
2017-08-17T06:55:45.168Z,32.10
2017-08-17T06:57:46.103Z,29.57
2017-08-17T06:59:47.074Z,26.50
2017-08-17T07:01:48.024Z,25.13
2017-08-17T07:03:48.967Z,30.20
2017-08-17T07:05:49.900Z,26.20
2017-08-17T07:07:50.997Z,30.80
2017-08-17T07:09:52.047Z,26.67
2017-08-17T07:11:52.980Z,24.10
2017-08-17T07:13:53.927Z,26.53
2017-08-17T07:15:54.856Z,24.73
2017-08-17T07:17:55.789Z,23.60
2017-08-17T07:19:56.719Z,23.10
2017-08-17T07:21:57.681Z,26.07
2017-08-17T07:23:58.619Z,22.03
2017-08-17T07:25:59.552Z,26.20
2017-08-17T07:28:00.487Z,26.73
2017-08-17T07:30:01.424Z,31.57
2017-08-17T07:32:02.364Z,24.27
2017-08-17T07:34:03.299Z,26.40
2017-08-17T07:36:05.179Z,22.53
2017-08-17T07:38:06.844Z,23.77
2017-08-17T07:40:07.783Z,22.40
2017-08-17T07:42:08.712Z,20.30
2017-08-17T07:44:09.644Z,22.60
2017-08-17T07:46:10.580Z,19.43
2017-08-17T07:48:11.537Z,24.33
2017-08-17T07:50:12.489Z,31.17
2017-08-17T07:52:13.668Z,21.47
2017-08-17T07:54:14.620Z,22.37
2017-08-17T07:56:15.553Z,25.43
2017-08-17T07:58:17.233Z,20.27
2017-08-17T08:00:18.177Z,19.57
2017-08-17T08:02:19.108Z,19.80
2017-08-17T08:04:20.052Z,19.23
2017-08-17T08:06:20.980Z,14.43
2017-08-17T08:08:22.030Z,14.50
2017-08-17T08:10:23.084Z,15.47
2017-08-17T08:12:24.015Z,16.93
2017-08-17T08:14:24.953Z,13.27
2017-08-17T08:16:25.915Z,11.10
2017-08-17T08:18:26.920Z,12.70
2017-08-17T08:20:27.988Z,15.70
2017-08-17T08:22:29.954Z,13.97
2017-08-17T08:24:30.898Z,9.83
2017-08-17T08:26:31.920Z,11.33
2017-08-17T08:28:33.597Z,11.17
2017-08-17T08:30:34.542Z,16.27
2017-08-17T08:32:35.477Z,12.03
2017-08-17T08:34:36.504Z,16.63
2017-08-17T08:36:37.629Z,11.17
2017-08-17T08:38:38.565Z,11.37
2017-08-17T08:40:40.240Z,10.13
2017-08-17T08:42:41.184Z,18.20
2017-08-17T08:44:42.121Z,11.10
2017-08-17T08:46:43.060Z,10.57
2017-08-17T08:48:44.003Z,13.10
2017-08-17T08:50:44.931Z,12.63
2017-08-17T08:52:46.157Z,12.47
2017-08-17T08:54:47.091Z,21.40
2017-08-17T08:56:48.039Z,12.43
2017-08-17T08:58:48.982Z,13.90
2017-08-17T09:00:49.914Z,13.63
2017-08-17T09:02:50.857Z,10.87
2017-08-17T09:04:51.800Z,8.83
2017-08-17T09:06:52.748Z,14.13
2017-08-17T09:08:53.672Z,13.33
2017-08-17T09:10:54.612Z,14.47
2017-08-17T09:12:55.640Z,16.17
2017-08-17T09:14:56.576Z,15.80
2017-08-17T09:16:57.528Z,12.70
2017-08-17T09:18:58.463Z,10.20
2017-08-17T09:20:59.429Z,14.13
2017-08-17T09:23:01.116Z,14.93
2017-08-17T09:25:02.052Z,10.37
2017-08-17T09:27:03.008Z,10.33
2017-08-17T09:29:03.940Z,10.77
2017-08-17T09:31:04.875Z,9.83
2017-08-17T09:33:05.821Z,17.20
2017-08-17T09:35:06.752Z,11.07
2017-08-17T09:37:07.691Z,12.73
2017-08-17T09:39:08.936Z,11.20
2017-08-17T09:41:09.868Z,8.23
2017-08-17T09:43:17.900Z,10.60
2017-08-17T09:45:18.828Z,11.37
2017-08-17T09:47:19.776Z,8.27
2017-08-17T09:49:21.456Z,8.73
2017-08-17T09:51:22.388Z,8.70
2017-08-17T09:53:23.332Z,7.70
2017-08-17T09:55:24.257Z,7.03
2017-08-17T09:57:25.191Z,11.73
2017-08-17T09:59:26.133Z,6.73
2017-08-17T10:01:27.076Z,7.47
2017-08-17T10:03:28.016Z,12.50
2017-08-17T10:05:28.953Z,8.53
2017-08-17T10:07:29.882Z,10.53
2017-08-17T10:09:30.825Z,8.83
2017-08-17T10:11:31.749Z,7.43
2017-08-17T10:13:32.700Z,7.40
2017-08-17T10:15:33.630Z,7.10
2017-08-17T10:17:34.556Z,9.70
2017-08-17T10:19:35.489Z,8.73
2017-08-17T10:21:36.454Z,9.63
2017-08-17T10:23:37.401Z,10.30
2017-08-17T10:25:38.380Z,9.93
2017-08-17T10:27:39.325Z,10.50
2017-08-17T10:29:40.265Z,7.40
2017-08-17T10:31:41.203Z,10.33
2017-08-17T10:33:42.137Z,7.17
2017-08-17T10:35:43.084Z,10.00
2017-08-17T10:37:44.022Z,14.40
2017-08-17T10:39:44.957Z,5.90
2017-08-17T10:41:45.880Z,16.13
2017-08-17T10:43:46.817Z,6.57
2017-08-17T10:45:47.751Z,7.90
2017-08-17T10:47:48.692Z,6.13
2017-08-17T10:49:49.620Z,5.60
2017-08-17T10:51:50.549Z,11.13
2017-08-17T10:53:51.481Z,9.30
2017-08-17T10:55:52.417Z,6.30
2017-08-17T10:57:53.352Z,5.03
2017-08-17T10:59:54.380Z,4.97
2017-08-17T11:01:55.380Z,6.27
2017-08-17T11:03:56.340Z,5.40
2017-08-17T11:05:58.064Z,5.03
2017-08-17T11:07:58.997Z,7.90
2017-08-17T11:09:59.932Z,6.20
2017-08-17T11:12:00.888Z,7.77
2017-08-17T11:14:01.815Z,5.10
2017-08-17T11:16:02.744Z,7.63
2017-08-17T11:18:03.670Z,4.50
2017-08-17T11:20:04.612Z,5.47
2017-08-17T11:22:05.560Z,5.50
2017-08-17T11:24:06.488Z,4.80
2017-08-17T11:26:07.419Z,5.97
2017-08-17T11:28:08.340Z,14.20
2017-08-17T11:30:09.279Z,11.00
2017-08-17T11:32:10.208Z,5.60
2017-08-17T11:34:11.151Z,5.93
2017-08-17T11:36:12.091Z,6.77
2017-08-17T11:38:13.071Z,8.13
2017-08-17T11:40:14.040Z,6.93
2017-08-17T11:42:14.980Z,5.53
2017-08-17T11:44:15.904Z,6.90
2017-08-17T11:46:16.852Z,11.20
2017-08-17T11:48:17.808Z,7.87
2017-08-17T11:50:18.744Z,5.93
2017-08-17T11:52:19.686Z,4.83
2017-08-17T11:54:20.617Z,13.60
2017-08-17T11:56:21.631Z,5.33
2017-08-17T11:58:22.554Z,13.63
2017-08-17T12:00:23.496Z,5.47
2017-08-17T12:02:24.437Z,5.50
2017-08-17T12:04:25.377Z,5.50
2017-08-17T12:06:26.312Z,8.67
2017-08-17T12:08:27.245Z,9.20
2017-08-17T12:10:28.173Z,8.43
2017-08-17T12:12:29.112Z,5.53
2017-08-17T12:14:30.040Z,3.87
2017-08-17T12:16:30.973Z,5.40
2017-08-17T12:18:31.903Z,7.60
2017-08-17T12:20:32.877Z,4.37
2017-08-17T12:22:33.851Z,5.47
2017-08-17T12:24:34.780Z,5.13
2017-08-17T12:26:36.456Z,4.40
2017-08-17T12:28:37.402Z,6.73
2017-08-17T12:30:38.360Z,5.30
2017-08-17T12:32:39.280Z,8.10
2017-08-17T12:34:40.212Z,3.97
2017-08-17T12:36:41.145Z,9.63
2017-08-17T12:38:42.084Z,4.37
2017-08-17T12:40:43.021Z,8.90
2017-08-17T12:42:43.976Z,4.67
2017-08-17T12:44:44.909Z,7.50
2017-08-17T12:46:45.845Z,4.67
2017-08-17T12:48:46.794Z,8.23
2017-08-17T12:50:47.725Z,9.33
2017-08-17T12:52:48.668Z,10.23
2017-08-17T12:54:49.606Z,4.40
2017-08-17T12:56:50.536Z,7.30
2017-08-17T12:58:51.492Z,4.60
2017-08-17T13:00:53.168Z,7.93
2017-08-17T13:02:54.097Z,9.10
2017-08-17T13:04:55.028Z,8.57
2017-08-17T13:06:55.958Z,7.20
2017-08-17T13:08:57.616Z,5.30
2017-08-17T13:10:58.553Z,8.43
2017-08-17T13:12:59.484Z,5.17
2017-08-17T13:15:00.413Z,15.50
2017-08-17T13:17:01.332Z,11.70
2017-08-17T13:19:02.997Z,8.00
2017-08-17T13:21:04.676Z,8.07
2017-08-17T13:23:05.604Z,9.87
2017-08-17T13:25:06.564Z,8.17
2017-08-17T13:27:07.519Z,6.57
2017-08-17T13:29:08.448Z,6.33
2017-08-17T13:31:09.453Z,7.03
2017-08-17T13:33:10.376Z,13.10
2017-08-17T13:35:11.320Z,10.50
2017-08-17T13:37:12.264Z,8.57
2017-08-17T13:39:13.216Z,6.40
2017-08-17T13:41:14.152Z,8.73
2017-08-17T13:43:15.083Z,12.03
2017-08-17T13:45:16.033Z,10.50
2017-08-17T13:47:16.983Z,5.80
2017-08-17T13:49:17.920Z,5.27
2017-08-17T13:51:19.624Z,6.53
2017-08-17T13:53:20.549Z,8.30
2017-08-17T13:55:21.472Z,11.93
2017-08-17T13:57:23.169Z,8.30
2017-08-17T13:59:24.092Z,10.47
2017-08-17T14:01:25.024Z,8.77
2017-08-17T14:03:25.956Z,15.03
2017-08-17T14:05:26.888Z,11.03
2017-08-17T14:07:27.836Z,9.10
2017-08-17T14:09:28.776Z,19.27
2017-08-17T14:11:29.760Z,7.93
2017-08-17T14:13:31.433Z,10.20
2017-08-17T14:15:32.360Z,9.77
2017-08-17T14:17:34.036Z,7.10
2017-08-17T14:19:34.969Z,9.77
2017-08-17T14:21:35.916Z,6.93
2017-08-17T14:23:36.852Z,17.60
2017-08-17T14:25:37.804Z,10.00
2017-08-17T14:27:38.744Z,8.13
2017-08-17T14:29:39.673Z,10.63
2017-08-17T14:31:40.788Z,12.30
2017-08-17T14:33:41.724Z,11.33
2017-08-17T14:35:42.657Z,9.40
2017-08-17T14:37:43.589Z,6.30
2017-08-17T14:39:44.536Z,12.67
2017-08-17T14:41:45.461Z,12.03
2017-08-17T14:43:46.417Z,7.13
2017-08-17T14:45:47.365Z,7.33
2017-08-17T14:47:48.551Z,7.07
2017-08-17T14:49:50.292Z,7.67
2017-08-17T14:51:51.219Z,5.30
2017-08-17T14:53:52.177Z,15.97
2017-08-17T14:55:53.853Z,9.33
2017-08-17T14:57:54.792Z,6.57
2017-08-17T14:59:55.724Z,11.17
2017-08-17T15:01:56.665Z,7.73
2017-08-17T15:03:57.604Z,5.27
2017-08-17T15:05:58.532Z,8.90
2017-08-17T15:07:59.480Z,7.37
2017-08-17T15:10:00.433Z,7.53
2017-08-17T15:12:01.369Z,10.40
2017-08-17T15:14:02.304Z,10.70
2017-08-17T15:16:03.244Z,14.07
2017-08-17T15:18:04.193Z,7.67
2017-08-17T15:20:05.125Z,10.30
2017-08-17T15:22:06.097Z,15.17
2017-08-17T15:24:07.048Z,8.77
2017-08-17T15:26:07.985Z,12.43
2017-08-17T15:28:08.913Z,9.40
2017-08-17T15:30:09.856Z,6.70
2017-08-17T15:32:10.780Z,8.53
2017-08-17T15:34:11.807Z,14.97
2017-08-17T15:36:12.728Z,7.20
2017-08-17T15:38:14.397Z,9.33
2017-08-17T15:40:15.340Z,8.00
2017-08-17T15:42:16.277Z,13.40
2017-08-17T15:44:17.202Z,13.07
2017-08-17T15:46:18.138Z,10.53
2017-08-17T15:48:19.068Z,14.53
2017-08-17T15:50:20.220Z,13.00
2017-08-17T15:52:21.157Z,12.93
2017-08-17T15:54:22.088Z,10.47
2017-08-17T15:56:23.023Z,10.60
2017-08-17T15:58:23.953Z,9.60
2017-08-17T16:00:24.887Z,11.10
2017-08-17T16:02:25.830Z,16.30
2017-08-17T16:04:26.765Z,23.50
2017-08-17T16:06:27.701Z,24.77
2017-08-17T16:08:28.640Z,18.80
2017-08-17T16:10:29.601Z,12.03
2017-08-17T16:12:30.532Z,18.57
2017-08-17T16:14:31.466Z,11.73
2017-08-17T16:18:40.182Z,13.13
2017-08-17T16:20:41.127Z,15.23
2017-08-17T16:22:42.061Z,15.23
2017-08-17T16:24:43.001Z,14.33
2017-08-17T16:26:43.948Z,16.23
2017-08-17T16:28:44.877Z,11.90
2017-08-17T16:30:45.819Z,17.53
2017-08-17T16:32:46.760Z,14.07
2017-08-17T16:34:47.687Z,20.97
2017-08-17T16:36:48.632Z,15.03
2017-08-17T16:38:49.567Z,14.20
2017-08-17T16:40:50.497Z,15.57
2017-08-17T16:42:51.437Z,14.20
2017-08-17T16:44:52.393Z,16.87
2017-08-17T16:46:53.331Z,19.00
2017-08-17T16:48:55.300Z,14.63
2017-08-17T16:50:57.008Z,16.30
2017-08-17T16:52:57.937Z,19.60
2017-08-17T16:54:58.872Z,20.47
2017-08-17T16:57:28.673Z,20.93
2017-08-17T16:59:29.604Z,13.40
2017-08-17T17:01:30.548Z,16.43
2017-08-17T17:03:31.484Z,19.50
2017-08-17T17:05:32.425Z,14.27
2017-08-17T17:07:33.609Z,20.50
2017-08-17T17:09:34.543Z,13.70
2017-08-17T17:11:35.484Z,17.70
2017-08-17T17:13:37.179Z,15.60
2017-08-17T17:15:38.116Z,18.13
2017-08-17T17:17:39.052Z,19.17
2017-08-17T17:19:39.988Z,21.27
2017-08-17T17:21:40.918Z,16.80
2017-08-17T17:23:41.862Z,16.60
2017-08-17T17:25:42.800Z,15.47
2017-08-17T17:27:43.736Z,20.23
2017-08-17T17:29:44.676Z,18.80
2017-08-17T17:31:45.612Z,17.03
2017-08-17T17:33:46.551Z,19.37
2017-08-17T17:35:47.479Z,17.77
2017-08-17T17:37:48.416Z,20.83
2017-08-17T17:39:49.344Z,15.70
2017-08-17T17:41:50.281Z,23.67
2017-08-17T17:43:51.226Z,19.20
2017-08-17T17:45:52.183Z,20.73
2017-08-17T17:47:53.161Z,17.63
2017-08-17T17:49:54.100Z,18.37
2017-08-17T17:51:55.041Z,14.13
2017-08-17T17:53:56.035Z,16.77
2017-08-17T17:55:57.116Z,18.77
2017-08-17T17:57:58.048Z,18.30
2017-08-17T17:59:58.973Z,29.60
2017-08-17T18:02:00.033Z,25.17
2017-08-17T18:04:00.977Z,16.20
2017-08-17T18:06:01.912Z,18.67
2017-08-17T18:08:02.843Z,15.17
2017-08-17T18:10:03.789Z,17.27
2017-08-17T18:12:04.741Z,18.60
2017-08-17T18:14:05.677Z,16.33
2017-08-17T18:16:06.612Z,15.73
2017-08-17T18:18:07.585Z,19.57
2017-08-17T18:20:09.251Z,17.83
2017-08-17T18:22:10.200Z,19.60
2017-08-17T18:24:11.217Z,20.60
2017-08-17T18:26:12.156Z,24.97
2017-08-17T18:28:13.119Z,19.40
2017-08-17T18:30:14.068Z,21.80
2017-08-17T18:32:15.032Z,16.67
2017-08-17T18:34:16.093Z,27.10
2017-08-17T18:36:17.175Z,19.73
2017-08-17T18:38:18.217Z,15.37
2017-08-17T18:40:19.192Z,16.10
2017-08-17T18:42:20.868Z,29.87
2017-08-17T18:44:21.819Z,20.70
2017-08-17T18:46:22.774Z,19.27
2017-08-17T18:48:23.733Z,24.47
2017-08-17T18:50:24.684Z,21.17
2017-08-17T18:52:26.433Z,15.47
2017-08-17T18:54:27.375Z,22.00
2017-08-17T18:56:29.324Z,17.07
2017-08-17T18:58:30.256Z,18.43
2017-08-17T19:00:31.200Z,23.80
2017-08-17T19:02:32.132Z,28.60
2017-08-17T19:04:33.829Z,18.90
2017-08-17T19:06:34.772Z,16.57
2017-08-17T19:08:35.728Z,18.87
2017-08-17T19:10:36.843Z,18.90
2017-08-17T19:12:37.835Z,17.03
2017-08-17T19:14:38.772Z,22.50
2017-08-17T19:16:39.707Z,20.27
2017-08-17T19:18:41.386Z,21.87
2017-08-17T19:20:42.331Z,16.93
2017-08-17T19:22:43.272Z,25.63
2017-08-17T19:24:44.280Z,16.80
2017-08-17T19:26:47.153Z,18.20
2017-08-17T19:28:48.112Z,19.10
2017-08-17T19:30:49.104Z,22.70
2017-08-17T19:32:50.115Z,19.30
2017-08-17T19:34:51.152Z,17.70
2017-08-17T19:36:52.104Z,23.20
2017-08-17T19:38:53.264Z,18.40
2017-08-17T19:40:54.197Z,16.80
2017-08-17T19:42:55.137Z,15.20
2017-08-17T19:44:56.092Z,18.23
2017-08-17T19:46:57.044Z,12.63
2017-08-17T19:48:58.251Z,14.57
2017-08-17T19:51:00.040Z,13.30
2017-08-17T19:53:01.076Z,15.43
2017-08-17T19:55:02.301Z,14.73
2017-08-17T19:57:03.995Z,14.40
2017-08-17T19:59:04.932Z,12.70
2017-08-17T20:01:06.004Z,12.43
2017-08-17T20:03:06.935Z,12.13
2017-08-17T20:05:09.944Z,16.23
2017-08-17T20:07:11.816Z,11.37
2017-08-17T20:09:12.816Z,15.67
2017-08-17T20:11:13.756Z,17.40
2017-08-17T20:13:14.684Z,15.63
2017-08-17T20:15:15.829Z,16.00
2017-08-17T20:17:16.776Z,14.20
2017-08-17T20:19:17.717Z,20.40
2017-08-17T20:21:19.400Z,21.63
2017-08-17T20:23:20.336Z,18.03
2017-08-17T20:25:21.314Z,17.23
2017-08-17T20:27:22.249Z,11.87
2017-08-17T20:29:23.179Z,17.17
2017-08-17T20:31:24.112Z,13.83
2017-08-17T20:33:25.058Z,17.50
2017-08-17T20:35:26.005Z,24.40
2017-08-17T20:37:26.944Z,15.23
2017-08-17T20:39:28.608Z,18.00
2017-08-17T20:41:29.549Z,15.13
2017-08-17T20:43:30.476Z,22.33
2017-08-17T20:45:32.167Z,22.13
2017-08-17T20:47:33.120Z,15.63
2017-08-17T20:49:34.057Z,17.30
2017-08-17T20:51:34.993Z,17.17
2017-08-17T20:53:36.028Z,17.33
2017-08-17T20:55:36.977Z,17.73
2017-08-17T20:57:37.933Z,30.67
2017-08-17T20:59:39.600Z,16.53
2017-08-17T21:01:40.544Z,17.17
2017-08-17T21:03:41.469Z,22.17
2017-08-17T21:05:43.153Z,18.93
2017-08-17T21:07:44.086Z,22.40
2017-08-17T21:09:45.012Z,21.20
2017-08-17T21:11:45.960Z,17.70
2017-08-17T21:13:53.968Z,17.13
2017-08-17T21:15:54.901Z,18.63
2017-08-17T21:17:56.064Z,16.53
2017-08-17T21:19:57.000Z,15.60
2017-08-17T21:21:57.936Z,24.90
2017-08-17T21:23:58.884Z,20.90
2017-08-17T21:25:59.818Z,19.90
2017-08-17T21:28:00.752Z,21.10
2017-08-17T21:30:01.694Z,18.37
2017-08-17T21:32:02.632Z,22.27
2017-08-17T21:34:03.777Z,17.67
2017-08-17T21:36:04.705Z,17.70
2017-08-17T21:38:05.641Z,18.87
2017-08-17T21:40:06.574Z,17.77
2017-08-17T21:42:07.501Z,16.73
2017-08-17T21:44:08.443Z,15.93
2017-08-17T21:46:09.385Z,13.93
2017-08-17T21:48:10.340Z,14.93
2017-08-17T21:50:11.336Z,14.07
2017-08-17T21:52:12.272Z,13.00
2017-08-17T21:54:13.208Z,14.03
2017-08-17T21:56:14.144Z,13.27
2017-08-17T21:58:15.072Z,15.43
2017-08-17T22:00:16.022Z,14.03
2017-08-17T22:02:16.960Z,14.73
2017-08-17T22:04:17.888Z,19.67
2017-08-17T22:06:18.820Z,14.07
2017-08-17T22:08:19.756Z,14.63
2017-08-17T22:10:20.708Z,15.57
2017-08-17T22:12:21.636Z,16.13
2017-08-17T22:14:22.592Z,19.57
2017-08-17T22:16:23.529Z,17.40
2017-08-17T22:18:25.217Z,23.77
2017-08-17T22:20:26.160Z,16.63
2017-08-17T22:22:27.104Z,20.33
2017-08-17T22:24:28.083Z,19.77
2017-08-17T22:26:29.011Z,16.40
2017-08-17T22:28:29.936Z,16.67
2017-08-17T22:30:30.885Z,22.23
2017-08-17T22:32:31.824Z,13.63
2017-08-17T22:34:33.496Z,18.30
2017-08-17T22:36:34.424Z,15.57
2017-08-17T22:38:36.095Z,15.00
2017-08-17T22:40:37.040Z,13.33
2017-08-17T22:42:37.972Z,12.83
2017-08-17T22:44:38.900Z,16.00
2017-08-17T22:46:39.864Z,14.10
2017-08-17T22:48:40.800Z,11.50
2017-08-17T22:50:41.738Z,11.27
2017-08-17T22:52:42.676Z,11.97
2017-08-17T22:54:43.607Z,19.47
2017-08-17T22:56:44.557Z,12.53
2017-08-17T22:58:45.505Z,13.50
2017-08-17T23:00:46.441Z,13.70
2017-08-17T23:02:47.377Z,11.17
2017-08-17T23:04:48.311Z,11.93
2017-08-17T23:06:49.265Z,15.80
2017-08-17T23:08:50.183Z,11.90
2017-08-17T23:10:51.112Z,12.70
2017-08-17T23:12:52.067Z,15.93
2017-08-17T23:14:53.008Z,15.47
2017-08-17T23:16:54.685Z,15.27
2017-08-17T23:18:55.648Z,17.67
2017-08-17T23:20:56.575Z,16.27
2017-08-17T23:22:57.513Z,15.20
2017-08-17T23:24:58.452Z,14.20
2017-08-17T23:26:59.403Z,18.40
2017-08-17T23:29:00.340Z,27.07
2017-08-17T23:31:01.291Z,17.57
2017-08-17T23:33:02.229Z,14.60
2017-08-17T23:35:03.164Z,14.87
2017-08-17T23:37:04.848Z,16.23
2017-08-17T23:39:05.778Z,14.40
2017-08-17T23:41:06.709Z,12.87
2017-08-17T23:43:07.660Z,12.27
2017-08-17T23:45:08.587Z,15.63
2017-08-17T23:47:09.516Z,12.93
2017-08-17T23:49:10.459Z,11.97
2017-08-17T23:51:11.384Z,17.33
2017-08-17T23:53:12.316Z,13.23
2017-08-17T23:55:14.001Z,14.07
2017-08-17T23:57:14.929Z,12.67
2017-08-17T23:59:15.856Z,15.43
